Time;durP1;ratioP1;P1;durP2;ratioP2;P2;SDS_P1;SDS_P2;PMS_P1;PMS_P2;Temp;Humidity;BMP_temperature;BMP_pressure;BME280_temperature;BME280_humidity;BME280_pressure;Samples;Min_cycle;Max_cycle;Signal;HPM_P1;HPM_P2
2022/12/30 00:00:06;;;;;;;8.00;4.18;;;24.20;99.90;;;;;;5052452;28;20029;-68
2022/12/30 00:02:34;;;;;;;6.90;4.43;;;24.50;99.90;;;;;;5037262;28;20401;-68
2022/12/30 00:05:01;;;;;;;8.20;3.95;;;24.60;99.90;;;;;;5035252;28;20026;-70
2022/12/30 00:07:28;;;;;;;8.27;3.53;;;24.70;99.90;;;;;;5038086;28;20028;-68
2022/12/30 00:09:56;;;;;;;11.95;4.35;;;24.80;99.90;;;;;;5035749;28;20059;-68
2022/12/30 00:35:13;;;;;;;7.65;3.45;;;24.70;99.90;;;;;;5044745;28;20040;-71
2022/12/30 00:37:41;;;;;;;7.28;3.50;;;24.90;99.90;;;;;;5045927;28;20061;-71
2022/12/30 00:40:09;;;;;;;7.65;4.00;;;25.30;99.90;;;;;;5048479;28;20025;-70
2022/12/30 00:43:21;;;;;;;9.82;3.22;;;25.60;99.90;;;;;;5044826;28;20041;-70
2022/12/30 00:45:25;;;;;;;6.63;3.80;;;25.90;99.90;;;;;;5035369;28;20430;-68
2022/12/30 00:47:53;;;;;;;10.43;3.75;;;26.10;99.90;;;;;;5039289;28;20059;-70
2022/12/30 00:56:09;;;;;;;11.15;3.75;;;26.10;99.10;;;;;;5041701;28;20040;-71
2022/12/30 00:58:36;;;;;;;6.63;3.47;;;26.20;99.90;;;;;;5032718;28;20025;-69
2022/12/30 01:01:04;;;;;;;8.65;3.22;;;26.60;99.90;;;;;;5043788;28;20021;-70
2022/12/30 01:03:31;;;;;;;10.10;3.20;;;26.70;98.90;;;;;;5047130;28;20127;-71
2022/12/30 01:05:58;;;;;;;13.02;3.45;;;26.80;98.60;;;;;;5036860;28;20653;-71
2022/12/30 01:08:25;;;;;;;7.93;2.67;;;27.00;98.80;;;;;;5030514;28;20108;-70
2022/12/30 01:10:52;;;;;;;14.15;3.67;;;26.80;96.70;;;;;;5041759;28;20022;-71
2022/12/30 01:13:20;;;;;;;11.50;3.85;;;26.50;97.00;;;;;;5042751;28;20032;-71
2022/12/30 01:15:47;;;;;;;10.30;3.20;;;26.30;98.20;;;;;;5046554;28;20028;-71
2022/12/30 01:18:14;;;;;;;9.25;3.10;;;26.30;98.50;;;;;;5045513;28;20028;-70
2022/12/30 01:20:41;;;;;;;13.82;4.05;;;26.40;98.50;;;;;;5035063;28;20029;-69
2022/12/30 01:23:09;;;;;;;11.23;2.55;;;26.50;98.30;;;;;;5040071;28;20045;-69
2022/12/30 01:25:40;;;;;;;7.22;2.55;;;26.60;97.20;;;;;;5063619;28;20393;-70
2022/12/30 01:28:07;;;;;;;11.55;3.00;;;26.60;97.20;;;;;;5061491;28;20029;-69
2022/12/30 01:30:34;;;;;;;11.38;3.28;;;26.50;97.80;;;;;;5052217;28;20025;-70
2022/12/30 01:33:01;;;;;;;12.90;3.28;;;26.00;99.00;;;;;;5050227;28;20032;-70
2022/12/30 01:35:29;;;;;;;14.30;2.90;;;25.90;99.40;;;;;;5056608;28;20017;-70
2022/12/30 01:37:56;;;;;;;10.07;2.90;;;25.80;99.20;;;;;;5051170;28;20071;-70
2022/12/30 01:40:23;;;;;;;6.97;2.72;;;25.70;99.90;;;;;;5049380;28;20044;-70
2022/12/30 01:42:50;;;;;;;10.70;3.53;;;25.80;99.50;;;;;;5035299;28;20117;-70
2022/12/30 01:45:21;;;;;;;7.45;3.70;;;25.60;99.20;;;;;;5044444;28;20439;-70
2022/12/30 01:47:59;;;;;;;7.40;3.60;;;25.40;99.90;;;;;;5048374;28;20094;-71
2022/12/30 01:50:53;;;;;;;8.93;3.25;;;25.30;99.90;;;;;;5037643;28;20049;-71
2022/12/30 01:53:32;;;;;;;8.30;3.60;;;25.20;99.90;;;;;;5044647;28;20040;-69
2022/12/30 01:56:05;;;;;;;12.88;3.67;;;25.20;99.90;;;;;;5031372;28;20025;-70
2022/12/30 01:58:55;;;;;;;8.68;2.85;;;25.20;99.90;;;;;;5031583;28;20025;-69
2022/12/30 02:01:23;;;;;;;11.23;3.72;;;25.20;99.90;;;;;;5031776;28;20457;-69
2022/12/30 02:03:59;;;;;;;11.15;3.92;;;25.10;99.90;;;;;;5031522;28;20088;-69
2022/12/30 02:06:42;;;;;;;13.13;2.92;;;25.00;99.90;;;;;;5031784;28;20025;-68
2022/12/30 02:09:09;;;;;;;6.45;2.42;;;24.80;99.90;;;;;;5031977;28;20021;-69
2022/12/30 02:11:36;;;;;;;7.75;2.70;;;24.90;99.90;;;;;;5032048;28;20022;-69
2022/12/30 02:14:04;;;;;;;8.10;2.10;;;24.90;99.90;;;;;;5032117;28;20429;-69
2022/12/30 02:16:55;;;;;;;9.07;2.15;;;24.80;99.40;;;;;;5031561;28;20500;-69
2022/12/30 02:19:53;;;;;;;10.38;2.03;;;24.60;99.90;;;;;;5031551;28;20029;-70
2022/12/30 02:22:54;;;;;;;11.63;2.05;;;24.70;97.40;;;;;;5031444;28;20180;-67
2022/12/30 02:25:34;;;;;;;10.88;2.58;;;24.70;96.40;;;;;;5031042;28;20112;-66
2022/12/30 02:28:48;;;;;;;8.27;2.00;;;24.70;96.90;;;;;;5030971;28;20033;-65
2022/12/30 02:31:48;;;;;;;6.05;1.42;;;24.90;95.40;;;;;;5030543;28;20160;-66
2022/12/30 02:34:29;;;;;;;5.45;1.63;;;25.00;94.30;;;;;;5030866;28;20018;-65
2022/12/30 02:37:25;;;;;;;7.70;1.95;;;25.20;94.20;;;;;;5030973;28;20030;-65
2022/12/30 02:40:06;;;;;;;6.50;2.25;;;25.40;93.80;;;;;;5030779;28;20026;-66
2022/12/30 02:45:44;;;;;;;13.23;2.78;;;25.50;93.40;;;;;;5031352;28;20075;-66
2022/12/30 02:48:23;;;;;;;6.30;1.80;;;25.60;93.40;;;;;;5030238;28;20061;-65
2022/12/30 02:53:40;;;;;;;8.95;1.75;;;25.60;91.70;;;;;;5031038;28;20036;-65
2022/12/30 02:56:07;;;;;;;8.88;2.58;;;25.90;91.70;;;;;;5031181;28;20433;-66
2022/12/30 02:58:40;;;;;;;10.13;2.28;;;25.90;88.70;;;;;;5031264;28;20037;-66
2022/12/30 03:04:26;;;;;;;11.60;2.15;;;25.90;89.70;;;;;;5030491;28;20160;-65
2022/12/30 03:07:00;;;;;;;6.22;1.58;;;26.10;90.10;;;;;;5030735;28;20155;-66
2022/12/30 03:09:42;;;;;;;;;;;26.30;88.50;;;;;;5031154;28;20021;-66
2022/12/30 03:12:20;;;;;;;7.68;1.80;;;26.30;86.80;;;;;;5030579;28;20067;-65
2022/12/30 03:14:57;;;;;;;9.68;2.92;;;26.50;88.00;;;;;;5030572;28;20039;-66
2022/12/30 03:17:32;;;;;;;7.85;2.67;;;26.60;87.50;;;;;;5030436;28;20379;-66
2022/12/30 03:20:04;;;;;;;8.43;2.08;;;27.00;85.20;;;;;;5030450;28;20032;-66
2022/12/30 03:28:11;;;;;;;6.65;1.58;;;26.90;80.70;;;;;;5031030;28;20485;-66
2022/12/30 03:30:48;;;;;;;9.20;1.85;;;26.80;79.50;;;;;;5030561;28;20032;-68
2022/12/30 03:33:17;;;;;;;8.60;1.42;;;26.80;81.80;;;;;;5030193;28;20781;-67
2022/12/30 03:36:15;;;;;;;8.35;1.60;;;26.60;83.30;;;;;;5030260;28;20025;-66
2022/12/30 03:38:51;;;;;;;6.18;1.50;;;26.20;86.00;;;;;;5028934;28;20095;-67
2022/12/30 03:41:21;;;;;;;3.65;1.40;;;26.00;84.20;;;;;;5030111;28;20029;-66
2022/12/30 03:43:50;;;;;;;11.85;1.73;;;25.90;85.40;;;;;;5030414;28;20052;-67
2022/12/30 03:46:20;;;;;;;7.13;1.58;;;25.60;86.00;;;;;;5029985;28;20029;-65
2022/12/30 03:48:47;;;;;;;11.80;2.08;;;25.40;88.30;;;;;;5028420;28;20049;-67
2022/12/30 03:51:15;;;;;;;13.13;2.80;;;25.40;88.90;;;;;;5030057;28;20033;-66
2022/12/30 03:53:42;;;;;;;8.48;1.58;;;25.40;89.20;;;;;;5028745;28;20141;-68
2022/12/30 03:56:09;;;;;;;6.82;1.80;;;25.30;87.80;;;;;;5029886;28;20032;-65
2022/12/30 03:58:36;;;;;;;8.25;1.45;;;25.00;88.40;;;;;;5029728;28;20017;-67
2022/12/30 04:01:04;;;;;;;5.85;1.83;;;25.00;89.30;;;;;;5030132;28;20029;-67
2022/12/30 04:03:31;;;;;;;6.10;1.55;;;25.00;89.30;;;;;;5029588;28;20074;-68
2022/12/30 04:05:58;;;;;;;7.63;1.38;;;25.10;89.70;;;;;;5029824;28;20021;-67
2022/12/30 04:08:25;;;;;;;7.97;2.05;;;25.10;89.00;;;;;;5030269;28;20025;-67
2022/12/30 04:10:53;;;;;;;7.97;1.48;;;25.00;87.10;;;;;;5030142;28;20071;-66
2022/12/30 04:13:20;;;;;;;6.00;1.27;;;25.00;85.20;;;;;;5029091;28;20041;-67
2022/12/30 04:15:49;;;;;;;10.80;2.33;;;24.90;87.10;;;;;;5029731;28;20050;-66
2022/12/30 04:18:17;;;;;;;5.43;2.10;;;24.90;88.30;;;;;;5028358;28;20120;-66
2022/12/30 04:20:46;;;;;;;11.20;1.80;;;24.90;87.50;;;;;;5029437;28;20030;-68
2022/12/30 04:23:14;;;;;;;15.48;2.67;;;25.00;88.50;;;;;;5029585;28;20036;-67
2022/12/30 04:25:41;;;;;;;6.32;1.63;;;25.10;89.00;;;;;;5029595;28;20096;-66
2022/12/30 04:28:08;;;;;;;10.05;1.52;;;25.10;88.60;;;;;;5029988;28;20112;-66
2022/12/30 04:30:36;;;;;;;8.10;2.60;;;25.10;86.90;;;;;;5030042;28;20020;-67
2022/12/30 04:33:04;;;;;;;9.02;1.90;;;25.00;86.90;;;;;;5029325;28;20033;-67
2022/12/30 04:35:31;;;;;;;7.95;2.10;;;25.00;88.10;;;;;;5029294;28;20069;-69
2022/12/30 04:37:58;;;;;;;8.63;2.53;;;25.00;87.30;;;;;;5028206;28;20155;-68
2022/12/30 04:40:25;;;;;;;10.38;2.38;;;25.00;87.70;;;;;;5029423;28;20071;-68
2022/12/30 04:42:53;;;;;;;9.07;2.28;;;25.00;87.90;;;;;;5029287;28;20038;-70
2022/12/30 04:45:20;;;;;;;11.15;1.88;;;25.10;86.90;;;;;;5026375;28;20107;-70
2022/12/30 04:47:47;;;;;;;6.47;1.67;;;25.20;83.90;;;;;;5025370;28;20056;-70
2022/12/30 04:50:14;;;;;;;10.80;2.10;;;25.20;84.90;;;;;;5027137;28;20359;-69
2022/12/30 04:52:42;;;;;;;11.35;1.60;;;25.20;86.40;;;;;;5027240;28;20034;-68
2022/12/30 04:55:09;;;;;;;8.45;1.90;;;25.20;86.40;;;;;;5027146;28;20022;-69
2022/12/30 04:57:36;;;;;;;10.40;2.17;;;25.10;87.50;;;;;;5027357;28;20025;-69
2022/12/30 05:00:09;;;;;;;7.32;1.98;;;25.20;85.40;;;;;;5027157;28;20494;-69
2022/12/30 05:02:36;;;;;;;8.23;1.98;;;25.40;85.40;;;;;;5026852;28;20052;-69
2022/12/30 05:05:04;;;;;;;6.68;1.40;;;25.40;85.40;;;;;;5026818;28;20023;-69
2022/12/30 05:07:31;;;;;;;7.03;1.88;;;25.30;86.90;;;;;;5025270;28;20088;-68
2022/12/30 05:09:58;;;;;;;9.75;2.00;;;25.40;85.90;;;;;;5027698;28;20112;-69
2022/12/30 05:12:25;;;;;;;13.07;4.30;;;25.40;86.90;;;;;;5030461;28;20107;-68
2022/12/30 05:14:53;;;;;;;7.68;1.55;;;25.40;86.40;;;;;;5030549;28;20037;-68
2022/12/30 05:17:20;;;;;;;7.50;2.30;;;25.30;88.50;;;;;;5030367;28;20032;-69
2022/12/30 05:19:47;;;;;;;5.50;1.92;;;25.30;88.50;;;;;;5030233;28;20018;-69
2022/12/30 05:22:14;;;;;;;6.30;1.40;;;25.40;85.10;;;;;;5029932;28;20033;-69
2022/12/30 05:27:27;;;;;;;6.72;1.60;;;25.50;85.70;;;;;;5049328;28;20552;-69
2022/12/30 05:29:54;;;;;;;6.68;1.67;;;25.70;85.00;;;;;;5047876;28;20036;-70
2022/12/30 05:32:22;;;;;;;5.05;1.35;;;25.50;85.70;;;;;;5050710;28;20108;-69
2022/12/30 05:34:49;;;;;;;9.38;1.50;;;25.40;84.20;;;;;;5051909;28;20017;-69
2022/12/30 05:37:16;;;;;;;7.25;1.35;;;25.20;84.70;;;;;;5051605;28;20071;-69
2022/12/30 05:39:43;;;;;;;6.50;1.33;;;25.20;84.30;;;;;;5051659;28;20028;-69
2022/12/30 05:42:11;;;;;;;6.47;1.38;;;25.20;85.60;;;;;;5051847;28;20068;-66
2022/12/30 05:44:38;;;;;;;8.38;1.75;;;25.10;85.30;;;;;;5051933;28;20366;-68
2022/12/30 05:47:05;;;;;;;9.23;1.50;;;25.00;86.80;;;;;;5051164;28;20024;-71
2022/12/30 05:49:32;;;;;;;4.15;1.30;;;24.80;87.10;;;;;;5051438;28;20354;-70
2022/12/30 05:52:00;;;;;;;5.10;1.33;;;24.70;87.40;;;;;;5051727;28;20141;-70
2022/12/30 05:54:27;;;;;;;5.57;1.45;;;24.60;88.50;;;;;;5051280;28;20072;-71
2022/12/30 05:56:54;;;;;;;9.30;1.38;;;24.50;88.80;;;;;;5051182;28;20415;-72
2022/12/30 05:59:22;;;;;;;10.70;1.40;;;24.60;89.20;;;;;;5051280;28;20025;-73
2022/12/30 06:01:49;;;;;;;9.82;2.30;;;24.80;88.90;;;;;;5050800;28;20086;-70
2022/12/30 06:04:20;;;;;;;9.75;1.55;;;24.80;89.00;;;;;;5051220;28;20048;-69
2022/12/30 06:06:47;;;;;;;13.82;1.95;;;24.90;90.20;;;;;;5050700;28;20013;-72
2022/12/30 06:09:14;;;;;;;10.60;2.05;;;24.90;90.40;;;;;;5049758;28;20396;-70
2022/12/30 06:11:41;;;;;;;7.47;2.22;;;25.00;91.40;;;;;;5049453;28;20559;-68
2022/12/30 06:14:12;;;;;;;9.00;1.83;;;25.10;91.90;;;;;;5049981;28;20029;-70
2022/12/30 06:16:39;;;;;;;10.20;2.35;;;25.00;91.90;;;;;;5049929;28;20060;-68
2022/12/30 06:19:07;;;;;;;10.68;1.60;;;25.00;91.50;;;;;;5050178;28;20052;-69
2022/12/30 06:21:35;;;;;;;17.40;2.17;;;25.00;90.90;;;;;;5047188;28;20021;-70
2022/12/30 06:24:03;;;;;;;6.57;1.73;;;25.00;91.10;;;;;;5049309;28;20211;-69
2022/12/30 06:26:30;;;;;;;8.95;1.48;;;25.00;91.30;;;;;;5049542;28;20067;-70
2022/12/30 06:28:57;;;;;;;6.97;1.88;;;24.90;90.60;;;;;;5049213;28;20670;-68
2022/12/30 06:31:25;;;;;;;10.43;1.90;;;24.80;90.80;;;;;;5050376;28;20025;-69
2022/12/30 06:33:52;;;;;;;5.82;1.10;;;24.60;93.10;;;;;;5050438;28;20023;-69
2022/12/30 06:36:19;;;;;;;7.82;1.38;;;24.50;91.40;;;;;;5050377;28;20029;-68
2022/12/30 06:38:46;;;;;;;5.10;1.10;;;24.40;91.70;;;;;;5050475;28;20112;-73
2022/12/30 06:41:13;;;;;;;11.68;2.47;;;24.40;92.10;;;;;;5050266;28;20021;-70
2022/12/30 06:43:41;;;;;;;8.50;1.55;;;24.40;92.50;;;;;;5050684;28;20495;-70
2022/12/30 06:46:08;;;;;;;7.40;1.38;;;24.50;92.60;;;;;;5050651;28;20052;-69
2022/12/30 06:48:35;;;;;;;8.75;2.13;;;24.50;93.50;;;;;;5049843;28;20056;-70
2022/12/30 06:51:03;;;;;;;11.52;2.38;;;24.60;94.10;;;;;;5050175;28;20017;-71
2022/12/30 06:53:30;;;;;;;8.02;1.65;;;24.60;94.10;;;;;;5049287;28;20055;-70
2022/12/30 06:55:57;;;;;;;10.82;1.98;;;24.60;93.60;;;;;;5043249;28;20482;-68
2022/12/30 06:58:25;;;;;;;6.38;1.42;;;24.60;93.80;;;;;;5041200;28;20155;-67
2022/12/30 07:00:52;;;;;;;10.90;1.50;;;24.70;93.40;;;;;;5044137;28;20410;-67
2022/12/30 07:03:19;;;;;;;7.72;1.50;;;24.70;92.30;;;;;;5038896;28;20033;-66
2022/12/30 07:05:47;;;;;;;12.95;1.88;;;24.90;92.80;;;;;;5049155;28;20031;-67
2022/12/30 07:08:14;;;;;;;9.75;1.70;;;24.80;92.70;;;;;;5047857;28;20021;-67
2022/12/30 07:10:41;;;;;;;9.20;1.90;;;24.70;93.10;;;;;;5038904;28;20066;-67
2022/12/30 07:13:10;;;;;;;9.65;2.30;;;24.60;93.20;;;;;;5048362;28;20025;-68
2022/12/30 07:15:37;;;;;;;6.80;1.50;;;24.50;93.70;;;;;;5034569;28;20135;-68
2022/12/30 07:18:05;;;;;;;9.48;2.05;;;24.30;93.40;;;;;;5045875;28;20108;-68
2022/12/30 07:20:32;;;;;;;6.28;1.23;;;24.30;93.60;;;;;;5047925;28;20507;-67
2022/12/30 07:22:59;;;;;;;12.20;1.73;;;24.20;93.70;;;;;;5047734;28;20021;-67
2022/12/30 07:25:27;;;;;;;10.52;1.75;;;24.00;94.00;;;;;;5048024;28;20127;-66
2022/12/30 07:28:00;;;;;;;9.05;1.50;;;23.90;94.00;;;;;;5034619;28;20382;-67
2022/12/30 07:30:28;;;;;;;9.95;1.55;;;23.80;94.60;;;;;;5029709;28;20025;-67
2022/12/30 07:32:56;;;;;;;7.30;2.05;;;23.80;94.70;;;;;;5029470;28;20394;-67
2022/12/30 07:35:23;;;;;;;9.38;1.70;;;23.80;94.90;;;;;;5029702;28;20021;-67
2022/12/30 07:37:51;;;;;;;7.82;1.42;;;23.70;95.10;;;;;;5046673;28;20032;-66
2022/12/30 07:40:19;;;;;;;7.82;1.95;;;23.60;95.60;;;;;;5038142;28;20764;-67
2022/12/30 07:42:46;;;;;;;13.00;1.73;;;23.60;95.80;;;;;;5029698;28;20055;-67
2022/12/30 07:45:13;;;;;;;7.15;1.85;;;23.50;96.20;;;;;;5029106;28;20018;-68
2022/12/30 07:47:43;;;;;;;11.20;2.10;;;23.50;96.30;;;;;;5032394;28;20108;-67
2022/12/30 07:50:11;;;;;;;8.63;1.77;;;23.40;96.50;;;;;;5030968;28;20505;-68
2022/12/30 07:52:40;;;;;;;9.77;2.10;;;23.40;96.30;;;;;;5045851;28;20032;-70
2022/12/30 07:55:07;;;;;;;12.05;3.40;;;23.40;96.10;;;;;;5029420;28;20445;-67
2022/12/30 07:57:35;;;;;;;14.48;2.25;;;23.40;96.30;;;;;;5029153;28;20389;-67
2022/12/30 08:00:03;;;;;;;9.68;1.95;;;23.40;96.50;;;;;;5033316;28;20726;-68
2022/12/30 08:02:30;;;;;;;20.02;2.10;;;23.30;96.60;;;;;;5036662;28;20045;-67
2022/12/30 08:04:57;;;;;;;10.35;2.50;;;23.20;97.10;;;;;;5046468;28;20378;-67
2022/12/30 08:07:24;;;;;;;6.82;2.47;;;23.10;97.20;;;;;;5041991;28;20037;-69
2022/12/30 08:09:52;;;;;;;14.13;2.00;;;23.00;97.50;;;;;;5039789;28;20108;-68
2022/12/30 08:12:19;;;;;;;11.80;2.20;;;23.00;97.40;;;;;;5039721;28;20021;-72
2022/12/30 08:14:46;;;;;;;7.50;1.48;;;23.00;97.50;;;;;;5033114;28;20065;-68
2022/12/30 08:17:14;;;;;;;12.80;2.67;;;22.90;97.90;;;;;;5035288;28;20029;-71
2022/12/30 08:19:41;;;;;;;10.25;1.70;;;22.80;97.40;;;;;;5034839;28;20026;-68
2022/12/30 08:22:09;;;;;;;10.13;1.63;;;22.80;97.50;;;;;;5033294;28;20638;-70
2022/12/30 08:24:36;;;;;;;9.73;3.30;;;22.80;97.40;;;;;;5031633;28;20460;-67
2022/12/30 08:27:03;;;;;;;11.82;2.13;;;22.70;98.30;;;;;;5033212;28;20050;-71
2022/12/30 08:29:31;;;;;;;7.15;1.70;;;22.70;98.70;;;;;;5033510;28;20039;-67
2022/12/30 08:31:59;;;;;;;10.00;1.70;;;22.60;99.40;;;;;;5036762;28;20440;-71
2022/12/30 08:34:26;;;;;;;9.00;2.08;;;22.60;99.90;;;;;;5035592;28;20489;-71
2022/12/30 08:36:55;;;;;;;10.50;2.05;;;22.50;99.90;;;;;;5035399;28;20100;-71
2022/12/30 08:39:22;;;;;;;9.00;2.20;;;22.50;99.90;;;;;;5034402;28;20026;-70
2022/12/30 08:41:49;;;;;;;10.05;2.38;;;22.40;99.90;;;;;;5033040;28;20472;-68
2022/12/30 08:44:17;;;;;;;15.93;3.15;;;22.40;99.90;;;;;;5035591;28;20033;-67
2022/12/30 08:46:44;;;;;;;6.55;2.72;;;22.30;99.90;;;;;;5038230;28;20131;-68
2022/12/30 08:49:12;;;;;;;15.13;2.85;;;22.30;99.90;;;;;;5039496;28;20140;-68
2022/12/30 08:51:40;;;;;;;20.15;2.67;;;22.20;99.90;;;;;;5037786;28;20393;-72
2022/12/30 08:54:07;;;;;;;16.95;2.60;;;22.20;99.90;;;;;;5038606;28;20164;-65
2022/12/30 08:56:39;;;;;;;11.98;3.92;;;22.20;99.90;;;;;;5037031;28;20492;-67
2022/12/30 08:59:08;;;;;;;17.20;2.47;;;22.10;99.90;;;;;;5038366;28;20163;-71
2022/12/30 09:01:38;;;;;;;9.57;2.47;;;22.10;99.90;;;;;;5035786;28;20033;-68
2022/12/30 09:04:06;;;;;;;17.23;4.07;;;22.00;99.90;;;;;;5038235;28;20413;-69
2022/12/30 09:06:36;;;;;;;11.25;2.58;;;21.90;99.90;;;;;;5039218;28;20052;-68
2022/12/30 09:09:05;;;;;;;14.15;2.83;;;21.90;99.90;;;;;;5038249;28;20623;-67
2022/12/30 09:11:35;;;;;;;12.20;2.45;;;21.80;99.90;;;;;;5036663;28;20021;-67
2022/12/30 09:14:05;;;;;;;12.43;2.35;;;21.70;99.90;;;;;;5037837;28;20017;-71
2022/12/30 09:16:33;;;;;;;27.40;12.02;;;21.60;99.90;;;;;;5037893;28;20598;-75
2022/12/30 09:19:00;;;;;;;27.95;14.00;;;21.60;99.90;;;;;;5039559;28;20032;-69
2022/12/30 09:21:28;;;;;;;15.80;4.25;;;21.50;99.90;;;;;;5037856;28;20022;-69
2022/12/30 09:23:56;;;;;;;10.93;2.28;;;21.40;99.90;;;;;;5037043;28;20209;-67
2022/12/30 09:26:25;;;;;;;11.35;2.63;;;21.40;99.90;;;;;;5037365;28;20024;-68
2022/12/30 09:28:53;;;;;;;11.00;2.40;;;21.30;99.90;;;;;;5038670;28;20494;-69
2022/12/30 09:31:20;;;;;;;11.77;2.00;;;21.30;99.90;;;;;;5036974;28;20025;-67
2022/12/30 09:33:48;;;;;;;10.90;2.45;;;21.20;99.90;;;;;;5038278;28;20106;-66
2022/12/30 09:36:15;;;;;;;12.95;2.50;;;21.30;99.90;;;;;;5038630;28;20130;-65
2022/12/30 09:38:43;;;;;;;14.95;2.30;;;21.20;99.90;;;;;;5037494;28;20036;-66
2022/12/30 09:41:12;;;;;;;13.18;3.58;;;21.20;99.90;;;;;;5038161;28;20024;-63
2022/12/30 09:43:56;;;;;;;19.38;3.60;;;21.10;99.90;;;;;;5040758;28;20173;-64
2022/12/30 09:46:47;;;;;;;9.33;2.47;;;21.10;99.90;;;;;;5037462;28;20017;-67
2022/12/30 09:49:34;;;;;;;8.90;2.45;;;21.10;99.90;;;;;;5034823;28;20296;-66
2022/12/30 09:52:37;;;;;;;8.93;2.22;;;20.90;99.90;;;;;;5035883;28;20021;-66
2022/12/30 09:55:31;;;;;;;14.95;3.67;;;20.90;99.90;;;;;;5037572;28;20872;-67
2022/12/30 09:58:04;;;;;;;12.20;2.42;;;20.80;99.90;;;;;;5037382;28;20017;-66
2022/12/30 10:00:35;;;;;;;14.35;2.83;;;20.70;99.90;;;;;;5036643;28;20034;-64
2022/12/30 10:03:20;;;;;;;14.27;2.17;;;20.70;99.90;;;;;;5037127;28;20067;-65
2022/12/30 10:05:47;;;;;;;13.98;2.35;;;20.60;99.90;;;;;;5037498;28;20045;-66
2022/12/30 10:08:30;;;;;;;10.27;2.40;;;20.60;99.90;;;;;;5037052;28;20056;-66
2022/12/30 10:11:29;;;;;;;15.13;2.67;;;20.50;99.90;;;;;;5036365;28;20478;-66
2022/12/30 10:14:23;;;;;;;15.25;2.78;;;20.50;99.90;;;;;;5037397;28;20052;-67
2022/12/30 10:17:33;;;;;;;10.15;2.92;;;20.40;99.90;;;;;;5037547;28;20028;-67
2022/12/30 10:20:33;;;;;;;16.98;3.22;;;20.20;99.90;;;;;;4994531;28;20037;-69
2022/12/30 10:23:18;;;;;;;13.35;2.92;;;20.10;99.90;;;;;;5035280;28;20112;-68
2022/12/30 10:26:09;;;;;;;9.43;2.85;;;20.10;99.90;;;;;;5036965;28;20393;-66
2022/12/30 10:28:40;;;;;;;11.02;3.13;;;20.00;99.90;;;;;;5037192;28;20033;-66
2022/12/30 10:31:15;;;;;;;13.25;2.85;;;20.00;99.90;;;;;;5036662;28;20022;-66
2022/12/30 10:33:42;;;;;;;19.77;3.40;;;20.00;99.90;;;;;;5036653;28;20029;-65
2022/12/30 10:36:32;;;;;;;19.88;3.67;;;20.00;99.90;;;;;;5037198;28;20025;-67
2022/12/30 10:39:25;;;;;;;15.00;2.85;;;20.10;99.90;;;;;;5037206;28;20032;-72
2022/12/30 10:42:16;;;;;;;6.90;2.22;;;20.00;99.90;;;;;;5034616;28;20037;-70
2022/12/30 10:45:05;;;;;;;8.35;3.17;;;20.00;99.90;;;;;;5035865;28;20033;-71
2022/12/30 10:47:54;;;;;;;14.15;3.70;;;19.80;99.90;;;;;;5036704;28;20047;-70
2022/12/30 10:50:43;;;;;;;11.93;2.50;;;19.80;99.90;;;;;;5034250;28;20482;-68
2022/12/30 10:53:19;;;;;;;13.30;3.88;;;19.80;99.90;;;;;;5037026;28;20026;-63
2022/12/30 10:55:58;;;;;;;17.10;7.88;;;19.80;99.90;;;;;;5035578;28;20016;-64
2022/12/30 10:58:28;;;;;;;23.20;7.97;;;19.80;99.90;;;;;;5034894;28;20116;-63
2022/12/30 11:00:55;;;;;;;12.23;3.20;;;19.80;99.90;;;;;;5036321;28;20118;-65
2022/12/30 11:03:31;;;;;;;19.38;3.20;;;19.60;99.90;;;;;;5035240;28;20124;-70
2022/12/30 11:06:15;;;;;;;8.90;3.05;;;19.60;99.90;;;;;;5034302;28;20018;-68
2022/12/30 11:08:43;;;;;;;9.75;2.17;;;19.50;99.90;;;;;;5036046;28;20083;-72
2022/12/30 11:11:10;;;;;;;11.68;3.00;;;19.40;99.90;;;;;;5035951;28;20036;-69
2022/12/30 11:16:31;;;;;;;8.93;2.80;;;19.20;99.90;;;;;;5035945;28;20515;-66
2022/12/30 11:19:02;;;;;;;13.68;2.83;;;19.10;99.90;;;;;;5034017;28;20052;-68
2022/12/30 11:21:32;;;;;;;13.18;2.75;;;18.90;99.90;;;;;;5036578;28;20023;-66
2022/12/30 11:24:02;;;;;;;16.60;3.13;;;18.80;99.90;;;;;;5036526;28;20119;-66
2022/12/30 11:26:33;;;;;;;16.95;3.78;;;18.70;99.90;;;;;;5036740;28;20021;-65
2022/12/30 11:29:08;;;;;;;14.73;3.05;;;18.60;99.90;;;;;;5035151;28;20029;-67
2022/12/30 11:31:42;;;;;;;9.25;2.75;;;18.50;99.90;;;;;;5037181;28;20052;-64
2022/12/30 11:34:28;;;;;;;14.32;3.17;;;18.30;99.90;;;;;;5035517;28;20025;-67
2022/12/30 11:36:56;;;;;;;12.52;3.10;;;18.20;99.90;;;;;;5033977;28;20097;-71
2022/12/30 11:39:27;;;;;;;6.90;3.70;;;18.10;99.90;;;;;;5035093;28;20474;-68
2022/12/30 11:41:57;;;;;;;9.40;2.83;;;18.00;99.90;;;;;;5035621;28;20532;-67
2022/12/30 11:44:28;;;;;;;8.18;3.22;;;17.90;99.90;;;;;;5035973;28;20465;-70
2022/12/30 11:46:58;;;;;;;14.60;3.72;;;17.80;99.90;;;;;;5037221;28;20017;-68
2022/12/30 11:49:36;;;;;;;8.05;3.00;;;17.70;99.90;;;;;;5033969;28;20049;-66
2022/12/30 11:52:18;;;;;;;17.50;3.15;;;17.50;99.90;;;;;;5035768;28;20056;-68
2022/12/30 11:54:54;;;;;;;14.02;3.53;;;17.50;99.90;;;;;;5036297;28;20084;-70
2022/12/30 11:57:48;;;;;;;12.30;5.03;;;17.40;99.90;;;;;;5035928;28;20375;-72
2022/12/30 12:00:18;;;;;;;18.27;7.18;;;17.30;99.90;;;;;;5039121;28;20397;-72
2022/12/30 12:02:53;;;;;;;13.15;3.22;;;17.30;99.90;;;;;;5044172;28;20124;-72
2022/12/30 12:05:22;;;;;;;11.10;3.35;;;17.20;99.90;;;;;;5027278;28;20056;-72
2022/12/30 12:07:55;;;;;;;10.02;3.78;;;17.20;99.90;;;;;;5027366;28;20136;-71
2022/12/30 12:10:28;;;;;;;29.90;15.70;;;17.10;99.90;;;;;;5025681;28;20547;-71
2022/12/30 12:13:20;;;;;;;18.55;4.07;;;17.10;99.90;;;;;;5025852;28;20425;-70
2022/12/30 12:15:53;;;;;;;15.32;3.90;;;17.10;99.90;;;;;;5027086;28;20052;-70
2022/12/30 12:18:59;;;;;;;28.33;4.80;;;17.00;99.90;;;;;;5028574;28;20136;-70
2022/12/30 12:21:31;;;;;;;12.32;3.90;;;17.10;99.90;;;;;;5033266;28;20071;-68
2022/12/30 12:24:48;;;;;;;9.98;3.15;;;17.00;99.90;;;;;;5030992;28;20044;-69
2022/12/30 12:27:19;;;;;;;11.32;3.60;;;17.00;99.90;;;;;;5029804;28;20030;-69
2022/12/30 12:29:46;;;;;;;11.88;4.85;;;16.90;99.90;;;;;;5047593;28;20029;-69
2022/12/30 12:32:47;;;;;;;16.55;4.53;;;16.90;99.90;;;;;;5048706;28;20083;-69
2022/12/30 12:35:26;;;;;;;13.43;3.58;;;16.90;99.90;;;;;;5047876;28;20033;-71
2022/12/30 12:38:31;;;;;;;13.70;4.10;;;16.80;99.90;;;;;;5042946;28;20064;-71
2022/12/30 12:41:17;;;;;;;38.50;15.93;;;16.80;99.90;;;;;;5054375;28;20486;-69
2022/12/30 12:44:02;;;;;;;15.18;5.57;;;16.70;99.90;;;;;;5035682;28;20379;-67
2022/12/30 12:46:56;;;;;;;20.85;5.57;;;16.70;99.90;;;;;;5048681;28;20041;-71
2022/12/30 12:49:41;;;;;;;18.30;4.60;;;16.60;99.90;;;;;;5041673;28;20061;-68
2022/12/30 12:52:19;;;;;;;13.57;4.43;;;16.60;99.90;;;;;;5044993;28;20405;-69
2022/12/30 12:55:14;;;;;;;10.75;3.85;;;16.60;99.90;;;;;;5033956;28;20052;-68
2022/12/30 12:58:04;;;;;;;10.88;3.50;;;16.60;99.90;;;;;;5035485;28;20461;-69
2022/12/30 13:01:04;;;;;;;15.95;4.18;;;16.50;99.90;;;;;;5026433;28;20175;-69
2022/12/30 13:03:31;;;;;;;20.30;4.53;;;16.50;99.90;;;;;;5033665;28;20045;-70
2022/12/30 13:06:28;;;;;;;11.50;3.92;;;16.40;99.90;;;;;;5030240;28;20033;-69
2022/12/30 13:09:22;;;;;;;12.60;4.35;;;16.50;99.90;;;;;;5036637;28;20120;-70
2022/12/30 13:12:03;;;;;;;19.08;5.28;;;16.60;99.90;;;;;;5036504;28;20108;-69
2022/12/30 13:14:54;;;;;;;9.73;4.50;;;16.60;99.90;;;;;;5034085;28;20172;-69
2022/12/30 13:17:55;;;;;;;11.32;4.40;;;16.70;99.90;;;;;;5040102;28;20029;-69
2022/12/30 13:20:29;;;;;;;11.55;4.20;;;16.70;99.90;;;;;;5034100;28;20597;-69
2022/12/30 13:23:02;;;;;;;12.30;4.15;;;16.60;99.90;;;;;;5030182;28;20037;-69
2022/12/30 13:25:58;;;;;;;15.80;4.93;;;16.50;99.90;;;;;;5039971;28;20359;-70
2022/12/30 13:28:28;;;;;;;11.85;5.38;;;16.50;99.90;;;;;;5043393;28;20028;-70
2022/12/30 13:30:58;;;;;;;19.85;5.82;;;16.50;99.90;;;;;;5035304;28;20029;-70
2022/12/30 13:33:57;;;;;;;18.67;6.28;;;16.50;99.90;;;;;;5038981;28;20044;-69
2022/12/30 13:36:45;;;;;;;20.83;5.55;;;16.50;99.90;;;;;;5033244;28;20033;-69
2022/12/30 13:39:21;;;;;;;16.25;5.53;;;16.50;99.90;;;;;;5041519;28;20072;-69
2022/12/30 13:42:29;;;;;;;16.52;5.57;;;16.50;99.90;;;;;;5052254;28;20078;-70
2022/12/30 13:44:56;;;;;;;21.20;6.47;;;16.60;99.90;;;;;;5051050;28;20052;-70
2022/12/30 13:47:38;;;;;;;19.92;7.43;;;16.70;99.90;;;;;;5051956;28;20147;-70
2022/12/30 13:50:21;;;;;;;24.10;5.97;;;16.60;99.90;;;;;;5052151;28;20017;-69
2022/12/30 13:52:54;;;;;;;21.73;6.70;;;16.60;99.90;;;;;;5031936;28;20112;-69
2022/12/30 13:55:23;;;;;;;14.25;5.72;;;16.70;99.90;;;;;;5032311;28;20025;-70
2022/12/30 13:58:05;;;;;;;16.08;6.03;;;16.80;99.90;;;;;;5039295;28;20025;-70
2022/12/30 14:00:37;;;;;;;23.83;6.90;;;16.80;99.90;;;;;;5041757;28;20017;-70